• Join FlightAware (Why Join?)
  • Login
  • US Flag 
08:01AM EST


 

Airport Tracker/Info


-or-


 

Live Flight TrackerFlight Track Log ✈ UAL289 ✈ 20-Apr-2013 ✈ KSFO - KSEA

Flight Track Log - Related Links

Times and Time Zones

All times are in EDT time to prevent confusion due to time zone crossing. See the UAL289 flight status page for this flight to view local times or setup timezone preferences in your user account.

Time Position Orientation Groundspeed Altitude Reporting Facility
EDT Latitude Longitude Course Direction KTS MPH feet Rate Location/Type
09:28AM 37.6322 -122.3633 North 156 180 36,000  Level Oakland Center
09:29AM 37.6675 -122.3394 28° Northeast 182 209 2,400 -15,180 Descending Oakland Center
09:30AM 37.7258 -122.3417 358° North 227 261 5,200 3,180 Climbing Oakland Center
09:31AM 37.9115 -122.3761 345° North  Level FlightAware Approximate
09:31AM 37.7911 -122.3794 335° Northwest 255 293 8,900  Level Oakland Center
09:32AM 38.0126 -122.3833 North  Level FlightAware Approximate
09:32AM 37.8883 -122.3792 360° North 294 338 12,500  Level Oakland Center
09:33AM 38.1144 -122.3833 North  Level FlightAware Approximate
09:33AM 37.9811 -122.3814 359° North 335 386 16,300  Level Oakland Center
09:34AM 38.0781 -122.3842 359° North 351 404 19,500 2,880 Climbing Oakland Center
09:35AM 38.1808 -122.3867 359° North 370 426 22,200 2,460 Climbing Oakland Center
09:36AM 38.2875 -122.3878 360° North 382 440 24,500 1,920 Climbing Oakland Center
09:37AM 38.4014 -122.3897 359° North 405 466 26,100 1,440 Climbing Oakland Center
09:38AM 38.5161 -122.3931 359° North 414 476 27,500 1,320 Climbing Oakland Center
09:39AM 38.6325 -122.3956 359° North 418 481 28,800 1,200 Climbing Oakland Center
09:40AM 38.7542 -122.3994 359° North 427 491 30,000 1,320 Climbing Oakland Center
09:41AM 38.8722 -122.4011 359° North 424 488 31,500 1,320 Climbing Oakland Center
09:42AM 38.9906 -122.3861 North 426 490 32,700 1,140 Climbing Oakland Center
09:43AM 39.1067 -122.3825 North 419 482 33,900 1,140 Climbing Oakland Center
09:44AM 39.2217 -122.3875 358° North 413 475 35,100 1,020 Climbing Oakland Center
09:45AM 39.3361 -122.3897 359° North 410 472 36,000 420 Climbing Oakland Center
09:46AM 39.4483 -122.3933 359° North 403 464 36,000  Level Oakland Center
09:47AM 39.5642 -122.3978 358° North 403 464 36,000  Level Oakland Center
09:48AM 39.6767 -122.4003 359° North 403 464 36,000  Level Oakland Center
09:49AM 39.7889 -122.4039 359° North 403 464 36,000  Level Oakland Center
09:50AM 39.9014 -122.4083 358° North 404 465 36,000  Level Oakland Center
09:51AM 40.0136 -122.4128 358° North 402 463 36,000  Level Oakland Center
09:52AM 40.1286 -122.4183 358° North 403 464 36,000  Level Oakland Center
09:53AM 40.2467 -122.4181 360° North 408 470 36,000  Level Oakland Center
09:54AM 40.3578 -122.4200 359° North 398 458 36,000  Level Oakland Center
09:55AM 40.4683 -122.4233 359° North 396 456 36,000  Level Oakland Center
09:56AM 40.5786 -122.4264 359° North 396 456 36,000  Level Oakland Center
09:57AM 40.6881 -122.4289 359° North 393 452 36,000  Level Oakland Center
09:58AM 40.7989 -122.4317 359° North 396 456 36,000  Level Oakland Center
09:59AM 40.9092 -122.4347 359° North 397 457 36,000  Level Oakland Center
10:00AM 41.0183 -122.4386 358° North 395 455 36,000  Level Oakland Center
10:01AM 41.1272 -122.4444 358° North 392 451 36,000  Level Oakland Center
10:02AM 41.2356 -122.4475 359° North 389 448 36,000  Level Oakland Center
10:03AM 41.3431 -122.4506 359° North 387 445 36,000  Level Oakland Center
10:04AM 41.4542 -122.4542 359° North 387 445 36,000  Level Seattle Center
10:05AM 41.5633 -122.4575 359° North 388 447 36,000  Level Seattle Center
10:06AM 41.6722 -122.4600 359° North 389 448 36,000  Level Seattle Center
10:07AM 41.7806 -122.4639 358° North 385 443 36,000  Level Seattle Center
10:08AM 41.8897 -122.4667 359° North 389 448 36,000  Level Seattle Center
10:09AM 41.9989 -122.4697 359° North 388 447 36,000  Level Seattle Center
10:10AM 42.1067 -122.4731 359° North 385 443 36,000  Level Seattle Center
10:11AM 42.2156 -122.4764 359° North 387 445 36,000  Level Seattle Center
10:12AM 42.3214 -122.4783 359° North 379 436 36,000  Level Seattle Center
10:13AM 42.4314 -122.4817 359° North 388 447 36,000  Level Seattle Center
10:14AM 42.5422 -122.4858 358° North 394 453 36,000  Level Seattle Center
10:15AM 42.6531 -122.4900 358° North 395 455 36,000  Level Seattle Center
10:16AM 42.7597 -122.4919 359° North 397 457 36,000  Level Seattle Center
10:17AM 42.8697 -122.4964 358° North 394 453 36,000  Level Seattle Center
10:18AM 42.9800 -122.4992 359° North 395 455 36,000  Level Seattle Center
10:20AM 43.1108 -122.5019 359° North 392 451 36,000  Level Seattle Center
10:21AM 43.2208 -122.5047 359° North 393 452 36,000  Level Seattle Center
10:22AM 43.3297 -122.5075 359° North 392 451 36,000  Level Seattle Center
10:23AM 43.4383 -122.5128 358° North 391 450 36,000  Level Seattle Center
10:24AM 43.5464 -122.5164 359° North 390 449 36,000  Level Seattle Center
10:25AM 43.6553 -122.5192 359° North 393 452 36,000  Level Seattle Center
10:26AM 43.7592 -122.5219 359° North 378 435 36,000  Level Seattle Center
10:27AM 43.8636 -122.5267 358° North 377 434 36,000  Level Seattle Center
10:28AM 43.9692 -122.5308 358° North 380 437 36,000  Level Seattle Center
10:29AM 44.0733 -122.5336 359° North 378 435 36,000  Level Seattle Center
10:30AM 44.1772 -122.5375 358° North 376 433 36,000  Level Seattle Center
10:31AM 44.2814 -122.5400 359° North 374 430 36,000  Level Seattle Center
10:32AM 44.3869 -122.5439 358° North 379 436 36,000  Level Seattle Center
10:33AM 44.4931 -122.5478 359° North 381 438 36,000  Level Seattle Center
10:34AM 44.5994 -122.5508 359° North 383 441 36,000  Level Seattle Center
10:35AM 44.7061 -122.5550 358° North 385 443 36,000  Level Seattle Center
10:36AM 44.8122 -122.5606 358° North 383 441 36,000 -60 Level Seattle Center
10:37AM 44.9339 -122.5642 359° North 377 434 35,900 -60 Descending Seattle Center
10:38AM 45.0383 -122.5681 358° North 377 434 35,900  Level Seattle Center
10:39AM 45.1411 -122.5711 359° North 373 429 35,900  Level Seattle Center
10:40AM 45.2442 -122.5739 359° North 373 429 35,900  Level Seattle Center
10:41AM 45.3472 -122.5772 359° North 373 429 36,000 -240 Climbing Seattle Center
10:42AM 45.4497 -122.5803 359° North 372 428 35,500 -780 Descending Seattle Center
10:43AM 45.5550 -122.5844 358° North 377 434 34,500 -1,020 Descending Seattle Center
10:44AM 45.6611 -122.5878 359° North 382 440 33,500 -1,680 Descending Seattle Center
10:45AM 45.7669 -122.5939 358° North 382 440 31,100 -2,400 Descending Seattle Center
10:46AM 45.8703 -122.6211 350° North 378 435 28,700 -2,400 Descending Seattle Center
10:47AM 45.9739 -122.6472 350° North 380 437 26,300 -2,340 Descending Seattle Center
10:48AM 46.0764 -122.6728 350° North 377 434 24,100 -1,320 Descending Seattle Center
10:49AM 46.1764 -122.6944 351° North 369 425 23,700 -1,260 Descending Seattle Center
10:50AM 46.2825 -122.7158 352° North 364 419 21,600 -1,680 Descending Seattle Center
10:51AM 46.3792 -122.7244 356° North 357 411 20,400 -1,200 Descending Seattle Center
10:52AM 46.4744 -122.7189 North 349 402 19,200 -1,200 Descending Seattle Center
10:53AM 46.5689 -122.7147 North 344 396 18,100 -1,020 Descending Seattle Center
10:54AM 46.6625 -122.7100 North 340 391 17,200 -1,140 Descending Seattle Center
10:55AM 46.7697 -122.7053 North 326 375 15,900 -1,260 Descending Seattle Center
10:55AM 46.8025 -122.7064 359° North 324 373 15,500 -1,080 Descending Seattle Center
10:56AM 46.8272 -122.6900 24° Northeast 329 379 15,200 -1,080 Descending Seattle Center
10:56AM 46.8514 -122.6594 41° Northeast 332 382 14,800 -1,200 Descending Seattle Center
10:57AM 46.8992 -122.6058 37° Northeast 331 381 14,000 -1,140 Descending Seattle Center
10:57AM 46.9231 -122.5781 38° Northeast 327 376 13,700 -1,140 Descending Seattle Center
10:58AM 46.9756 -122.5483 21° North 310 357 12,900 -1,140 Descending Seattle Center
10:58AM 47.0022 -122.5344 20° North 310 357 12,600 -1,020 Descending Seattle Center
10:59AM 47.0572 -122.5106 16° North 305 351 11,900 -1,020 Descending Seattle Center
10:59AM 47.0819 -122.4994 17° North 303 349 11,600 -1,080 Descending Seattle Center
11:00AM 47.1494 -122.4897 North 285 328 10,700 -1,020 Descending Seattle Center
11:00AM 47.1600 -122.4856 15° North 286 329 10,600 -900 Descending Seattle Center
11:01AM 47.2125 -122.4750 North 268 308 9,900 -1,020 Descending Seattle Center
11:01AM 47.2339 -122.4728 North 263 303 9,600 -900 Descending Seattle Center
11:02AM 47.2919 -122.4642 North 242 278 8,900 -840 Descending Seattle Center
11:02AM 47.2989 -122.4636 North 246 283 8,800 -900 Descending Seattle Center
11:03AM 47.3608 -122.4558 North 246 283 8,000 -840 Descending Seattle Center
11:03AM 47.3672 -122.4542 10° North 248 285 8,000 -1,020 Level Seattle Center
11:04AM 47.4322 -122.4561 359° North 241 277 6,900 -1,560 Descending Seattle Center
11:05AM 47.5072 -122.4544 North 226 260 5,000 -1,620 Descending Seattle Center
11:06AM 47.5597 -122.4517 North 221 254 3,700 -1,020 Descending Seattle Center
11:07AM 47.6164 -122.4206 20° North 208 239 3,000 -300 Descending Seattle Center
11:08AM 47.6186 -122.3503 87° East 201 231 3,100 -420 Climbing Seattle Center
11:09AM 47.5736 -122.3128 151° Southeast 179 206 2,300 -840 Descending Seattle Center